sensor_id;sensor_type;location;lat;lon;timestamp;P1;durP1;ratioP1;P2;durP2;ratioP2
18194;SDS011;9223;50.988;3.162;2024-02-26T00:01:41;1.73;;;1.20;;
18194;SDS011;9223;50.988;3.162;2024-02-26T00:07:46;2.13;;;1.30;;
18194;SDS011;9223;50.988;3.162;2024-02-26T00:14:12;2.72;;;1.48;;
18194;SDS011;9223;50.988;3.162;2024-02-26T00:20:15;3.60;;;1.50;;
18194;SDS011;9223;50.988;3.162;2024-02-26T00:26:20;2.50;;;1.38;;
18194;SDS011;9223;50.988;3.162;2024-02-26T00:32:24;2.83;;;1.30;;
18194;SDS011;9223;50.988;3.162;2024-02-26T00:38:27;1.88;;;1.48;;
18194;SDS011;9223;50.988;3.162;2024-02-26T00:44:32;1.90;;;1.48;;
18194;SDS011;9223;50.988;3.162;2024-02-26T00:50:36;1.77;;;1.67;;
18194;SDS011;9223;50.988;3.162;2024-02-26T00:56:39;2.08;;;1.70;;
18194;SDS011;9223;50.988;3.162;2024-02-26T01:02:44;2.83;;;1.73;;
18194;SDS011;9223;50.988;3.162;2024-02-26T01:08:49;3.00;;;1.60;;
18194;SDS011;9223;50.988;3.162;2024-02-26T01:14:53;4.05;;;2.25;;
18194;SDS011;9223;50.988;3.162;2024-02-26T01:20:59;2.63;;;1.92;;
18194;SDS011;9223;50.988;3.162;2024-02-26T01:27:02;2.85;;;1.70;;
18194;SDS011;9223;50.988;3.162;2024-02-26T01:33:06;2.55;;;2.00;;
18194;SDS011;9223;50.988;3.162;2024-02-26T01:39:11;2.33;;;2.00;;
18194;SDS011;9223;50.988;3.162;2024-02-26T01:45:16;2.17;;;1.98;;
18194;SDS011;9223;50.988;3.162;2024-02-26T01:51:24;3.53;;;1.83;;
18194;SDS011;9223;50.988;3.162;2024-02-26T01:57:29;2.53;;;1.85;;
18194;SDS011;9223;50.988;3.162;2024-02-26T02:03:32;3.10;;;1.73;;
18194;SDS011;9223;50.988;3.162;2024-02-26T02:09:36;3.05;;;2.00;;
18194;SDS011;9223;50.988;3.162;2024-02-26T02:15:42;2.10;;;1.88;;
18194;SDS011;9223;50.988;3.162;2024-02-26T02:21:46;2.33;;;1.80;;
18194;SDS011;9223;50.988;3.162;2024-02-26T02:27:50;2.05;;;1.75;;
18194;SDS011;9223;50.988;3.162;2024-02-26T02:33:54;2.53;;;2.30;;
18194;SDS011;9223;50.988;3.162;2024-02-26T02:39:59;2.95;;;2.25;;
18194;SDS011;9223;50.988;3.162;2024-02-26T02:46:02;3.47;;;2.40;;
18194;SDS011;9223;50.988;3.162;2024-02-26T02:52:06;3.53;;;2.65;;
18194;SDS011;9223;50.988;3.162;2024-02-26T02:58:11;3.35;;;2.13;;
18194;SDS011;9223;50.988;3.162;2024-02-26T03:10:43;2.60;;;2.40;;
18194;SDS011;9223;50.988;3.162;2024-02-26T03:16:48;3.88;;;3.03;;
18194;SDS011;9223;50.988;3.162;2024-02-26T03:22:52;3.80;;;3.38;;
18194;SDS011;9223;50.988;3.162;2024-02-26T03:28:55;3.60;;;3.30;;
18194;SDS011;9223;50.988;3.162;2024-02-26T03:35:00;4.95;;;4.45;;
18194;SDS011;9223;50.988;3.162;2024-02-26T03:41:04;7.00;;;5.68;;
18194;SDS011;9223;50.988;3.162;2024-02-26T03:47:09;8.32;;;6.47;;
18194;SDS011;9223;50.988;3.162;2024-02-26T03:53:14;7.65;;;6.10;;
18194;SDS011;9223;50.988;3.162;2024-02-26T03:59:18;8.50;;;6.47;;
18194;SDS011;9223;50.988;3.162;2024-02-26T04:05:23;7.57;;;6.50;;
18194;SDS011;9223;50.988;3.162;2024-02-26T04:11:28;8.23;;;7.35;;
18194;SDS011;9223;50.988;3.162;2024-02-26T04:17:32;9.30;;;7.65;;
18194;SDS011;9223;50.988;3.162;2024-02-26T04:23:35;10.25;;;8.68;;
18194;SDS011;9223;50.988;3.162;2024-02-26T04:29:40;10.82;;;8.73;;
18194;SDS011;9223;50.988;3.162;2024-02-26T04:35:44;9.45;;;7.70;;
18194;SDS011;9223;50.988;3.162;2024-02-26T04:41:47;11.40;;;7.80;;
18194;SDS011;9223;50.988;3.162;2024-02-26T04:47:52;10.70;;;8.07;;
18194;SDS011;9223;50.988;3.162;2024-02-26T04:53:55;8.30;;;6.75;;
18194;SDS011;9223;50.988;3.162;2024-02-26T04:59:59;7.90;;;7.10;;
18194;SDS011;9223;50.988;3.162;2024-02-26T05:06:08;9.48;;;6.32;;
18194;SDS011;9223;50.988;3.162;2024-02-26T05:12:12;8.43;;;6.35;;
18194;SDS011;9223;50.988;3.162;2024-02-26T05:18:15;7.20;;;6.10;;
18194;SDS011;9223;50.988;3.162;2024-02-26T05:24:20;8.25;;;5.70;;
18194;SDS011;9223;50.988;3.162;2024-02-26T05:30:24;6.88;;;5.38;;
18194;SDS011;9223;50.988;3.162;2024-02-26T05:36:29;7.30;;;5.55;;
18194;SDS011;9223;50.988;3.162;2024-02-26T05:42:36;7.05;;;5.63;;
18194;SDS011;9223;50.988;3.162;2024-02-26T05:48:39;7.82;;;4.88;;
18194;SDS011;9223;50.988;3.162;2024-02-26T05:54:43;4.75;;;3.97;;
18194;SDS011;9223;50.988;3.162;2024-02-26T06:00:48;7.18;;;5.10;;
18194;SDS011;9223;50.988;3.162;2024-02-26T06:06:52;5.32;;;4.60;;
18194;SDS011;9223;50.988;3.162;2024-02-26T06:12:59;6.85;;;4.95;;
18194;SDS011;9223;50.988;3.162;2024-02-26T06:19:18;6.22;;;4.70;;
18194;SDS011;9223;50.988;3.162;2024-02-26T06:25:21;7.55;;;5.03;;
18194;SDS011;9223;50.988;3.162;2024-02-26T06:31:27;6.32;;;4.85;;
18194;SDS011;9223;50.988;3.162;2024-02-26T06:37:32;7.80;;;5.88;;
18194;SDS011;9223;50.988;3.162;2024-02-26T06:43:35;9.50;;;6.45;;
18194;SDS011;9223;50.988;3.162;2024-02-26T06:49:39;8.88;;;6.05;;
18194;SDS011;9223;50.988;3.162;2024-02-26T06:55:44;9.20;;;7.18;;
18194;SDS011;9223;50.988;3.162;2024-02-26T07:01:47;8.63;;;6.68;;
18194;SDS011;9223;50.988;3.162;2024-02-26T07:07:51;10.35;;;6.35;;
18194;SDS011;9223;50.988;3.162;2024-02-26T07:13:56;9.52;;;6.28;;
18194;SDS011;9223;50.988;3.162;2024-02-26T07:19:59;8.55;;;5.85;;
18194;SDS011;9223;50.988;3.162;2024-02-26T07:26:09;6.88;;;5.35;;
18194;SDS011;9223;50.988;3.162;2024-02-26T07:32:14;8.60;;;5.40;;
18194;SDS011;9223;50.988;3.162;2024-02-26T07:38:18;6.93;;;4.72;;
18194;SDS011;9223;50.988;3.162;2024-02-26T07:44:37;5.50;;;3.80;;
18194;SDS011;9223;50.988;3.162;2024-02-26T07:50:46;7.38;;;4.35;;
18194;SDS011;9223;50.988;3.162;2024-02-26T07:56:49;4.90;;;4.33;;
18194;SDS011;9223;50.988;3.162;2024-02-26T08:02:53;4.15;;;3.30;;
18194;SDS011;9223;50.988;3.162;2024-02-26T08:08:58;4.80;;;2.97;;
18194;SDS011;9223;50.988;3.162;2024-02-26T08:15:01;4.43;;;2.72;;
18194;SDS011;9223;50.988;3.162;2024-02-26T08:21:05;2.97;;;2.38;;
18194;SDS011;9223;50.988;3.162;2024-02-26T08:27:11;4.60;;;2.97;;
18194;SDS011;9223;50.988;3.162;2024-02-26T08:33:15;5.03;;;3.00;;
18194;SDS011;9223;50.988;3.162;2024-02-26T08:39:19;3.40;;;2.60;;
18194;SDS011;9223;50.988;3.162;2024-02-26T08:45:24;3.90;;;2.83;;
18194;SDS011;9223;50.988;3.162;2024-02-26T08:51:31;3.42;;;2.85;;
18194;SDS011;9223;50.988;3.162;2024-02-26T08:57:34;3.72;;;2.88;;
18194;SDS011;9223;50.988;3.162;2024-02-26T09:03:40;3.50;;;2.58;;
18194;SDS011;9223;50.988;3.162;2024-02-26T09:09:44;4.77;;;3.77;;
18194;SDS011;9223;50.988;3.162;2024-02-26T09:15:48;7.45;;;4.20;;
18194;SDS011;9223;50.988;3.162;2024-02-26T09:21:53;6.97;;;4.10;;
18194;SDS011;9223;50.988;3.162;2024-02-26T09:27:59;6.78;;;4.30;;
18194;SDS011;9223;50.988;3.162;2024-02-26T09:34:02;6.80;;;4.68;;
18194;SDS011;9223;50.988;3.162;2024-02-26T09:40:08;5.40;;;4.18;;
18194;SDS011;9223;50.988;3.162;2024-02-26T09:46:13;7.50;;;4.85;;
18194;SDS011;9223;50.988;3.162;2024-02-26T09:52:19;8.63;;;6.25;;
18194;SDS011;9223;50.988;3.162;2024-02-26T09:58:24;7.20;;;4.90;;
18194;SDS011;9223;50.988;3.162;2024-02-26T10:04:28;11.18;;;5.60;;
18194;SDS011;9223;50.988;3.162;2024-02-26T10:10:32;8.35;;;5.68;;
18194;SDS011;9223;50.988;3.162;2024-02-26T10:16:37;9.38;;;6.05;;
18194;SDS011;9223;50.988;3.162;2024-02-26T10:22:41;9.70;;;6.25;;
18194;SDS011;9223;50.988;3.162;2024-02-26T10:28:45;9.50;;;6.15;;
18194;SDS011;9223;50.988;3.162;2024-02-26T10:34:56;11.70;;;7.15;;
18194;SDS011;9223;50.988;3.162;2024-02-26T10:41:01;10.05;;;6.38;;
18194;SDS011;9223;50.988;3.162;2024-02-26T10:47:04;11.75;;;7.30;;
18194;SDS011;9223;50.988;3.162;2024-02-26T10:53:12;10.32;;;7.10;;
18194;SDS011;9223;50.988;3.162;2024-02-26T10:59:19;10.85;;;6.20;;
18194;SDS011;9223;50.988;3.162;2024-02-26T11:05:23;9.20;;;6.20;;
18194;SDS011;9223;50.988;3.162;2024-02-26T11:11:28;11.57;;;6.53;;
18194;SDS011;9223;50.988;3.162;2024-02-26T11:17:32;7.90;;;5.82;;
18194;SDS011;9223;50.988;3.162;2024-02-26T11:23:36;8.40;;;6.00;;
18194;SDS011;9223;50.988;3.162;2024-02-26T11:29:44;7.70;;;5.28;;
18194;SDS011;9223;50.988;3.162;2024-02-26T11:35:50;7.13;;;5.40;;
18194;SDS011;9223;50.988;3.162;2024-02-26T11:41:55;6.30;;;4.78;;
18194;SDS011;9223;50.988;3.162;2024-02-26T11:48:11;6.47;;;4.82;;
18194;SDS011;9223;50.988;3.162;2024-02-26T11:54:27;5.18;;;4.40;;
18194;SDS011;9223;50.988;3.162;2024-02-26T12:00:40;5.55;;;4.22;;
18194;SDS011;9223;50.988;3.162;2024-02-26T12:06:46;6.30;;;4.03;;
18194;SDS011;9223;50.988;3.162;2024-02-26T12:12:53;4.72;;;3.88;;
18194;SDS011;9223;50.988;3.162;2024-02-26T12:18:57;5.35;;;3.95;;
18194;SDS011;9223;50.988;3.162;2024-02-26T12:25:02;3.83;;;3.38;;
18194;SDS011;9223;50.988;3.162;2024-02-26T12:31:07;5.35;;;3.38;;
18194;SDS011;9223;50.988;3.162;2024-02-26T12:37:10;4.03;;;3.10;;
18194;SDS011;9223;50.988;3.162;2024-02-26T12:43:16;5.18;;;3.70;;
18194;SDS011;9223;50.988;3.162;2024-02-26T12:49:19;3.38;;;3.08;;
18194;SDS011;9223;50.988;3.162;2024-02-26T12:55:23;4.00;;;3.03;;
18194;SDS011;9223;50.988;3.162;2024-02-26T13:01:28;4.70;;;2.85;;
18194;SDS011;9223;50.988;3.162;2024-02-26T13:07:32;5.83;;;3.83;;
18194;SDS011;9223;50.988;3.162;2024-02-26T13:13:36;7.32;;;3.13;;
18194;SDS011;9223;50.988;3.162;2024-02-26T13:19:49;4.47;;;3.17;;
18194;SDS011;9223;50.988;3.162;2024-02-26T13:25:56;3.58;;;3.28;;
18194;SDS011;9223;50.988;3.162;2024-02-26T13:31:59;3.50;;;2.30;;
18194;SDS011;9223;50.988;3.162;2024-02-26T13:38:05;3.33;;;2.25;;
18194;SDS011;9223;50.988;3.162;2024-02-26T13:44:09;2.53;;;2.28;;
18194;SDS011;9223;50.988;3.162;2024-02-26T13:50:12;2.22;;;2.03;;
18194;SDS011;9223;50.988;3.162;2024-02-26T13:56:17;3.33;;;2.40;;
18194;SDS011;9223;50.988;3.162;2024-02-26T14:02:21;3.30;;;2.80;;
18194;SDS011;9223;50.988;3.162;2024-02-26T14:08:24;3.63;;;2.90;;
18194;SDS011;9223;50.988;3.162;2024-02-26T14:14:29;3.42;;;2.83;;
18194;SDS011;9223;50.988;3.162;2024-02-26T14:20:36;4.00;;;3.00;;
18194;SDS011;9223;50.988;3.162;2024-02-26T14:26:41;4.00;;;2.60;;
18194;SDS011;9223;50.988;3.162;2024-02-26T14:32:46;4.23;;;3.83;;
18194;SDS011;9223;50.988;3.162;2024-02-26T14:38:50;3.83;;;3.05;;
18194;SDS011;9223;50.988;3.162;2024-02-26T14:44:54;3.95;;;3.45;;
18194;SDS011;9223;50.988;3.162;2024-02-26T14:50:59;4.57;;;3.50;;
18194;SDS011;9223;50.988;3.162;2024-02-26T14:57:03;5.75;;;4.80;;
18194;SDS011;9223;50.988;3.162;2024-02-26T15:03:07;4.28;;;3.63;;
18194;SDS011;9223;50.988;3.162;2024-02-26T15:09:12;3.60;;;3.30;;
18194;SDS011;9223;50.988;3.162;2024-02-26T15:15:16;4.70;;;4.13;;
18194;SDS011;9223;50.988;3.162;2024-02-26T15:21:19;5.38;;;3.97;;
18194;SDS011;9223;50.988;3.162;2024-02-26T15:27:24;8.15;;;5.20;;
18194;SDS011;9223;50.988;3.162;2024-02-26T15:33:28;5.78;;;4.03;;
18194;SDS011;9223;50.988;3.162;2024-02-26T15:39:31;4.53;;;3.65;;
18194;SDS011;9223;50.988;3.162;2024-02-26T15:45:37;4.85;;;3.70;;
18194;SDS011;9223;50.988;3.162;2024-02-26T15:51:41;8.82;;;5.22;;
18194;SDS011;9223;50.988;3.162;2024-02-26T15:57:45;7.18;;;4.00;;
18194;SDS011;9223;50.988;3.162;2024-02-26T16:03:50;4.93;;;3.83;;
18194;SDS011;9223;50.988;3.162;2024-02-26T16:09:55;5.50;;;4.32;;
18194;SDS011;9223;50.988;3.162;2024-02-26T16:15:59;7.05;;;4.65;;
18194;SDS011;9223;50.988;3.162;2024-02-26T16:22:06;5.90;;;3.97;;
18194;SDS011;9223;50.988;3.162;2024-02-26T16:28:10;5.35;;;4.05;;
18194;SDS011;9223;50.988;3.162;2024-02-26T16:34:14;4.85;;;3.88;;
18194;SDS011;9223;50.988;3.162;2024-02-26T16:40:19;4.00;;;3.42;;
18194;SDS011;9223;50.988;3.162;2024-02-26T16:46:23;10.95;;;4.38;;
18194;SDS011;9223;50.988;3.162;2024-02-26T16:52:27;5.47;;;4.15;;
18194;SDS011;9223;50.988;3.162;2024-02-26T16:58:32;5.35;;;3.72;;
18194;SDS011;9223;50.988;3.162;2024-02-26T17:04:36;5.60;;;3.17;;
18194;SDS011;9223;50.988;3.162;2024-02-26T17:10:39;4.75;;;3.42;;
18194;SDS011;9223;50.988;3.162;2024-02-26T17:16:44;7.90;;;3.90;;
18194;SDS011;9223;50.988;3.162;2024-02-26T17:22:48;4.40;;;3.33;;
18194;SDS011;9223;50.988;3.162;2024-02-26T17:28:51;5.70;;;2.72;;
18194;SDS011;9223;50.988;3.162;2024-02-26T17:34:56;5.97;;;3.30;;
18194;SDS011;9223;50.988;3.162;2024-02-26T17:41:00;6.00;;;3.38;;
18194;SDS011;9223;50.988;3.162;2024-02-26T17:47:03;5.05;;;2.95;;
18194;SDS011;9223;50.988;3.162;2024-02-26T17:53:08;4.72;;;2.50;;
18194;SDS011;9223;50.988;3.162;2024-02-26T17:59:14;6.25;;;3.45;;
18194;SDS011;9223;50.988;3.162;2024-02-26T18:05:17;9.60;;;3.20;;
18194;SDS011;9223;50.988;3.162;2024-02-26T18:11:22;6.93;;;3.03;;
18194;SDS011;9223;50.988;3.162;2024-02-26T18:17:26;10.63;;;3.00;;
18194;SDS011;9223;50.988;3.162;2024-02-26T18:23:30;6.22;;;3.45;;
18194;SDS011;9223;50.988;3.162;2024-02-26T18:29:35;8.32;;;3.40;;
18194;SDS011;9223;50.988;3.162;2024-02-26T18:35:39;6.65;;;3.17;;
18194;SDS011;9223;50.988;3.162;2024-02-26T18:41:42;8.45;;;4.10;;
18194;SDS011;9223;50.988;3.162;2024-02-26T18:47:47;8.48;;;4.00;;
18194;SDS011;9223;50.988;3.162;2024-02-26T18:53:50;7.43;;;3.78;;
18194;SDS011;9223;50.988;3.162;2024-02-26T18:59:54;11.15;;;4.30;;
18194;SDS011;9223;50.988;3.162;2024-02-26T19:05:59;11.02;;;4.50;;
18194;SDS011;9223;50.988;3.162;2024-02-26T19:12:05;7.60;;;3.88;;
18194;SDS011;9223;50.988;3.162;2024-02-26T19:18:10;8.48;;;3.88;;
18194;SDS011;9223;50.988;3.162;2024-02-26T19:24:15;7.18;;;3.08;;
18194;SDS011;9223;50.988;3.162;2024-02-26T19:30:18;10.50;;;4.38;;
18194;SDS011;9223;50.988;3.162;2024-02-26T19:36:22;8.55;;;3.50;;
18194;SDS011;9223;50.988;3.162;2024-02-26T19:42:27;7.10;;;4.38;;
18194;SDS011;9223;50.988;3.162;2024-02-26T19:48:31;8.85;;;3.50;;
18194;SDS011;9223;50.988;3.162;2024-02-26T19:54:36;7.15;;;3.03;;
18194;SDS011;9223;50.988;3.162;2024-02-26T20:00:41;8.30;;;2.47;;
18194;SDS011;9223;50.988;3.162;2024-02-26T20:06:45;4.65;;;2.03;;
18194;SDS011;9223;50.988;3.162;2024-02-26T20:12:49;4.70;;;2.28;;
18194;SDS011;9223;50.988;3.162;2024-02-26T20:18:55;8.43;;;2.45;;
18194;SDS011;9223;50.988;3.162;2024-02-26T20:24:59;5.55;;;2.00;;
18194;SDS011;9223;50.988;3.162;2024-02-26T20:31:03;3.42;;;1.83;;
18194;SDS011;9223;50.988;3.162;2024-02-26T20:37:08;4.20;;;2.08;;
18194;SDS011;9223;50.988;3.162;2024-02-26T20:43:12;6.20;;;1.70;;
18194;SDS011;9223;50.988;3.162;2024-02-26T20:49:18;5.18;;;1.88;;
18194;SDS011;9223;50.988;3.162;2024-02-26T20:55:23;7.15;;;2.40;;
18194;SDS011;9223;50.988;3.162;2024-02-26T21:01:27;2.95;;;1.73;;
18194;SDS011;9223;50.988;3.162;2024-02-26T21:07:30;2.53;;;1.88;;
18194;SDS011;9223;50.988;3.162;2024-02-26T21:13:36;4.55;;;1.90;;
18194;SDS011;9223;50.988;3.162;2024-02-26T21:19:41;5.65;;;1.80;;
18194;SDS011;9223;50.988;3.162;2024-02-26T21:25:45;4.95;;;1.75;;
18194;SDS011;9223;50.988;3.162;2024-02-26T21:31:50;4.95;;;1.73;;
18194;SDS011;9223;50.988;3.162;2024-02-26T21:37:54;5.13;;;1.80;;
18194;SDS011;9223;50.988;3.162;2024-02-26T21:43:57;6.43;;;2.05;;
18194;SDS011;9223;50.988;3.162;2024-02-26T21:50:09;4.88;;;1.95;;
18194;SDS011;9223;50.988;3.162;2024-02-26T21:56:12;3.38;;;1.67;;
18194;SDS011;9223;50.988;3.162;2024-02-26T22:02:16;3.78;;;1.90;;
18194;SDS011;9223;50.988;3.162;2024-02-26T22:08:21;2.88;;;1.98;;
18194;SDS011;9223;50.988;3.162;2024-02-26T22:14:24;3.40;;;1.52;;
18194;SDS011;9223;50.988;3.162;2024-02-26T22:20:29;3.92;;;1.63;;
18194;SDS011;9223;50.988;3.162;2024-02-26T22:26:34;3.35;;;1.50;;
18194;SDS011;9223;50.988;3.162;2024-02-26T22:32:38;3.88;;;1.40;;
18194;SDS011;9223;50.988;3.162;2024-02-26T22:38:42;1.85;;;1.05;;
18194;SDS011;9223;50.988;3.162;2024-02-26T22:44:46;3.28;;;1.40;;
18194;SDS011;9223;50.988;3.162;2024-02-26T22:50:50;2.33;;;1.17;;
18194;SDS011;9223;50.988;3.162;2024-02-26T22:56:53;2.22;;;1.20;;
18194;SDS011;9223;50.988;3.162;2024-02-26T23:02:58;2.88;;;1.60;;
18194;SDS011;9223;50.988;3.162;2024-02-26T23:09:02;3.55;;;1.77;;
18194;SDS011;9223;50.988;3.162;2024-02-26T23:15:07;3.40;;;1.60;;
18194;SDS011;9223;50.988;3.162;2024-02-26T23:21:12;1.52;;;1.40;;
18194;SDS011;9223;50.988;3.162;2024-02-26T23:27:15;5.35;;;1.40;;
18194;SDS011;9223;50.988;3.162;2024-02-26T23:33:19;2.13;;;1.23;;
18194;SDS011;9223;50.988;3.162;2024-02-26T23:39:24;1.92;;;1.50;;
18194;SDS011;9223;50.988;3.162;2024-02-26T23:45:28;2.83;;;1.50;;
18194;SDS011;9223;50.988;3.162;2024-02-26T23:51:31;3.58;;;1.40;;
18194;SDS011;9223;50.988;3.162;2024-02-26T23:57:36;2.72;;;1.15;;
